Algoma Mariner — CFN5517 — position and weather

sailwx.info

Track history (hours):
 
Tides and Currents Weather Stations Pressure Air Temp Water Temp Dewpoint Dewpoint Depression Visibility Wind Speed Wind Dir Waves Ship Positions

Algoma Mariner

Last reported at 2014-Sep-19 12:00 UTC. Time now 2014-Sep-19 13:48 UTC.
Position N 43°06' W 065°54'.

Length 225 m; draft 7.2 m.

Type: Cargo ship. MMSI: 316014050.

Wind from 340 at 19 knots

Waves 2.0 meters (7 feet), 2 second period

Barometer 1027.0 mb
Air temperature 10.0 ° C
Visibility: greater than 10.8 NM

Date/timePositionNaut miles runAvg speedWind from/ knotsBaromVisibWave heightAir tempDewpointWater temp
2014-Sep-19 12:00N 43°06' W 065°54'   340 / 191027.010.8 2.010.0
2014-Sep-14 18:00N 48°48' W 060°54'11110.1 150 / 171019.010.8 2.016.0 9.0
2014-Sep-14 07:00N 48°54' W 063°42'22612.6 120 / 231025.010.8 1.012.0 9.0
2014-Sep-13 13:00N 48°12' W 069°18'16012.6 050 / 41032.010.8 0.5 8.0 8.0
2014-Sep-13 00:18N 46°27' W 072°15'1114.3
2014-Sep-12 23:33N 46°22' W 072°29'1312.9
2014-Sep-12 22:33N 46°15' W 072°44'19 0.7
2014-Sep-11 20:27N 46°03' W 073°07'0 0.0
2014-Sep-10 17:27N 46°03' W 073°07'0 0.1
2014-Sep-10 16:19N 46°03' W 073°07'10 8.3
2014-Sep-10 15:06N 45°55' W 073°13'813.8
2014-Sep-10 14:33N 45°48' W 073°19'1313.3
2014-Sep-10 13:34N 45°37' W 073°30'8 7.7
2014-Sep-10 12:33N 45°30' W 073°31'1 1.3
2014-Sep-10 11:34N 45°28' W 073°30'5 2.4
2014-Sep-10 09:33N 45°24' W 073°35'2 1.8
2014-Sep-10 08:33N 45°24' W 073°37'6 6.5
2014-Sep-10 07:33N 45°24' W 073°46'8 8.1
2014-Sep-10 06:33N 45°19' W 073°55'1 0.8
2014-Sep-10 05:33N 45°18' W 073°56'2 1.9
2014-Sep-10 04:33N 45°16' W 073°57'7 6.2
2014-Sep-10 03:29N 45°13' W 074°05'9 9.6
2014-Sep-10 02:33N 45°12' W 074°18'1111.3
2014-Sep-10 01:33N 45°05' W 074°30'94 7.1
2014-Sep-09 12:19N 44°12' W 076°18'  
Track history (hours):
 
Tides and Currents Weather Stations Pressure Air Temp Water Temp Dewpoint Dewpoint Depression Visibility Wind Speed Wind Dir Waves Ship Positions

Algoma Mariner

Last reported at 2014-Sep-19 12:00 UTC. Time now 2014-Sep-19 13:48 UTC.
Position N 43°06' W 065°54'.

Length 225 m; draft 7.2 m.

Type: Cargo ship. MMSI: 316014050.

Wind from 340 at 19 knots

Waves 2.0 meters (7 feet), 2 second period

Barometer 1027.0 mb
Air temperature 10.0 ° C
Visibility: greater than 10.8 NM

Date/timePositionNaut miles runAvg speedWind from/ knotsBaromVisibWave heightAir tempDewpointWater temp
2014-Sep-19 12:00N 43°06' W 065°54'   340 / 191027.010.8 2.010.0
2014-Sep-14 18:00N 48°48' W 060°54'11110.1 150 / 171019.010.8 2.016.0 9.0
2014-Sep-14 07:00N 48°54' W 063°42'22612.6 120 / 231025.010.8 1.012.0 9.0
2014-Sep-13 13:00N 48°12' W 069°18'16012.6 050 / 41032.010.8 0.5 8.0 8.0
2014-Sep-13 00:18N 46°27' W 072°15'1114.3
2014-Sep-12 23:33N 46°22' W 072°29'1312.9
2014-Sep-12 22:33N 46°15' W 072°44'19 0.7
2014-Sep-11 20:27N 46°03' W 073°07'0 0.0
2014-Sep-10 17:27N 46°03' W 073°07'0 0.1
2014-Sep-10 16:19N 46°03' W 073°07'10 8.3
2014-Sep-10 15:06N 45°55' W 073°13'813.8
2014-Sep-10 14:33N 45°48' W 073°19'1313.3
2014-Sep-10 13:34N 45°37' W 073°30'8 7.7
2014-Sep-10 12:33N 45°30' W 073°31'1 1.3
2014-Sep-10 11:34N 45°28' W 073°30'5 2.4
2014-Sep-10 09:33N 45°24' W 073°35'2 1.8
2014-Sep-10 08:33N 45°24' W 073°37'6 6.5
2014-Sep-10 07:33N 45°24' W 073°46'8 8.1
2014-Sep-10 06:33N 45°19' W 073°55'1 0.8
2014-Sep-10 05:33N 45°18' W 073°56'2 1.9
2014-Sep-10 04:33N 45°16' W 073°57'7 6.2
2014-Sep-10 03:29N 45°13' W 074°05'9 9.6
2014-Sep-10 02:33N 45°12' W 074°18'1111.3
2014-Sep-10 01:33N 45°05' W 074°30'94 7.1
2014-Sep-09 12:19N 44°12' W 076°18'  

Dump ship's entire track history